createdAt,value
2018-08-22T06:00:47.250Z,18.3
2018-08-22T06:01:07.399Z,18.3
2018-08-22T06:01:27.574Z,18.4
2018-08-22T06:01:47.855Z,18.4
2018-08-22T06:02:08.065Z,18.4
2018-08-22T06:02:28.323Z,18.4
2018-08-22T06:02:48.495Z,18.4
2018-08-22T06:03:08.734Z,18.4
2018-08-22T06:03:28.948Z,18.5
2018-08-22T06:03:49.221Z,18.4
2018-08-22T06:04:09.470Z,18.4
2018-08-22T06:04:29.665Z,18.5
2018-08-22T06:04:49.807Z,18.5
2018-08-22T06:05:10.101Z,18.6
2018-08-22T06:05:30.389Z,18.6
2018-08-22T06:05:50.585Z,18.5
2018-08-22T06:06:10.760Z,18.6
2018-08-22T06:06:31.000Z,18.5
2018-08-22T06:06:51.362Z,18.6
2018-08-22T06:07:11.605Z,18.5
2018-08-22T06:07:31.873Z,18.6
2018-08-22T06:07:52.117Z,18.6
2018-08-22T06:08:12.245Z,18.6
2018-08-22T06:08:32.410Z,18.6
2018-08-22T06:08:52.569Z,18.6
2018-08-22T06:09:12.784Z,18.6
2018-08-22T06:09:33.005Z,18.6
2018-08-22T06:09:53.201Z,18.6
2018-08-22T06:10:13.331Z,18.6
2018-08-22T06:10:33.507Z,18.6
2018-08-22T06:10:53.744Z,18.6
2018-08-22T06:11:13.925Z,18.6
2018-08-22T06:11:34.190Z,18.7
2018-08-22T06:11:54.409Z,18.6
2018-08-22T06:12:14.584Z,18.6
2018-08-22T06:12:34.846Z,18.8
2018-08-22T06:12:55.042Z,18.7
2018-08-22T06:13:15.230Z,18.7
2018-08-22T06:13:35.535Z,18.7
2018-08-22T06:13:55.705Z,18.7
2018-08-22T06:14:15.846Z,18.7
2018-08-22T06:14:36.028Z,18.8
2018-08-22T06:14:56.248Z,18.7
2018-08-22T06:15:16.533Z,18.8
2018-08-22T06:15:36.844Z,18.8
2018-08-22T06:15:57.090Z,18.8
2018-08-22T06:16:17.324Z,18.7
2018-08-22T06:16:37.527Z,18.9
2018-08-22T06:16:57.725Z,18.8
2018-08-22T06:17:17.870Z,18.8
2018-08-22T06:17:38.794Z,18.9
2018-08-22T06:17:58.944Z,18.8
2018-08-22T06:18:19.111Z,18.9
2018-08-22T06:18:39.245Z,18.9
2018-08-22T06:18:59.481Z,18.9
2018-08-22T06:19:19.718Z,18.8
2018-08-22T06:19:39.866Z,18.9
2018-08-22T06:20:00.168Z,18.9
2018-08-22T06:20:20.353Z,19
2018-08-22T06:20:40.581Z,18.9
2018-08-22T06:21:00.804Z,18.9
2018-08-22T06:21:21.019Z,18.9
2018-08-22T06:21:41.270Z,19
2018-08-22T06:22:01.510Z,19
2018-08-22T06:22:21.693Z,19
2018-08-22T06:22:41.913Z,19
2018-08-22T06:23:02.115Z,19.1
2018-08-22T06:23:22.292Z,19
2018-08-22T06:23:42.537Z,19
2018-08-22T06:24:02.754Z,18.9
2018-08-22T06:24:22.958Z,19.1
2018-08-22T06:24:43.288Z,19
2018-08-22T06:25:03.433Z,18.9
2018-08-22T06:25:23.645Z,19.1
2018-08-22T06:25:43.799Z,19.1
2018-08-22T06:26:03.990Z,19.1
2018-08-22T06:26:24.292Z,19.1
2018-08-22T06:26:44.509Z,19.2
2018-08-22T06:27:04.708Z,19.2
2018-08-22T06:27:24.961Z,19.1
2018-08-22T06:27:45.179Z,19.1
2018-08-22T06:28:05.379Z,19.1
2018-08-22T06:28:25.614Z,19.2
2018-08-22T06:28:45.877Z,19.2
2018-08-22T06:29:06.054Z,19.2
2018-08-22T06:29:26.336Z,19.2
2018-08-22T06:29:46.573Z,19.2
2018-08-22T06:30:06.813Z,19.2
2018-08-22T06:30:27.018Z,19.2
2018-08-22T06:30:47.237Z,19.3
2018-08-22T06:31:07.439Z,19.3
2018-08-22T06:31:27.651Z,19.3
2018-08-22T06:31:47.911Z,19.2
2018-08-22T06:32:08.135Z,19.3
2018-08-22T06:32:28.370Z,19.4
2018-08-22T06:32:48.571Z,19.3
2018-08-22T06:33:08.933Z,19.4
2018-08-22T06:33:29.147Z,19.4
2018-08-22T06:33:49.506Z,19.4
2018-08-22T06:34:09.704Z,19.4
2018-08-22T06:34:29.877Z,19.4
2018-08-22T06:34:50.037Z,19.4
2018-08-22T06:35:10.266Z,19.4
2018-08-22T06:35:30.489Z,19.4
2018-08-22T06:35:50.715Z,19.5
2018-08-22T06:36:10.985Z,19.4
2018-08-22T06:36:31.266Z,19.4
2018-08-22T06:36:51.441Z,19.4
2018-08-22T06:37:11.668Z,19.4
2018-08-22T06:37:31.870Z,19.5
2018-08-22T06:37:52.089Z,19.4
2018-08-22T06:38:12.296Z,19.4
2018-08-22T06:38:32.533Z,19.4
2018-08-22T06:38:52.764Z,19.4
2018-08-22T06:39:12.941Z,19.4
2018-08-22T06:39:33.127Z,19.4
2018-08-22T06:39:53.447Z,19.5
2018-08-22T06:40:13.682Z,19.4
2018-08-22T06:40:33.858Z,19.5
2018-08-22T06:40:54.122Z,19.5
2018-08-22T06:41:14.295Z,19.6
2018-08-22T06:41:34.527Z,19.6
2018-08-22T06:41:54.716Z,19.5
2018-08-22T06:42:14.932Z,19.5
2018-08-22T06:42:35.177Z,19.6
2018-08-22T06:42:55.376Z,19.5
2018-08-22T06:43:15.539Z,19.5
2018-08-22T06:43:35.763Z,19.6
2018-08-22T06:43:55.917Z,19.5
2018-08-22T06:44:16.198Z,19.5
2018-08-22T06:44:36.387Z,19.6
2018-08-22T06:44:56.610Z,19.6
2018-08-22T06:45:16.780Z,19.6
2018-08-22T06:45:36.974Z,19.7
2018-08-22T06:45:57.136Z,19.6
2018-08-22T06:46:17.336Z,19.6
2018-08-22T06:46:37.598Z,19.6
2018-08-22T06:46:57.780Z,19.7
2018-08-22T06:47:18.002Z,19.7
2018-08-22T06:47:38.213Z,19.7
2018-08-22T06:47:58.408Z,19.8
2018-08-22T06:48:18.730Z,19.8
2018-08-22T06:48:39.868Z,19.7
2018-08-22T06:49:00.102Z,19.8
2018-08-22T06:49:20.253Z,19.8
2018-08-22T06:49:40.404Z,19.8
2018-08-22T06:50:00.581Z,19.8
2018-08-22T06:50:20.941Z,19.8
2018-08-22T06:50:41.663Z,19.8
2018-08-22T06:51:01.888Z,19.9
2018-08-22T06:51:22.085Z,19.9
2018-08-22T06:51:42.291Z,20
2018-08-22T06:52:02.431Z,19.9
2018-08-22T06:52:23.985Z,20
2018-08-22T06:52:44.221Z,20
2018-08-22T06:53:04.429Z,20
2018-08-22T06:53:24.604Z,20
2018-08-22T06:53:44.804Z,20
2018-08-22T06:54:05.017Z,19.9
2018-08-22T06:54:25.221Z,20.1
2018-08-22T06:54:45.488Z,20.1
2018-08-22T06:55:05.688Z,20
2018-08-22T06:55:26.451Z,20
2018-08-22T06:55:46.690Z,20.1
2018-08-22T06:56:06.913Z,20
2018-08-22T06:56:27.178Z,20.1
2018-08-22T06:56:47.443Z,20.1
2018-08-22T06:57:07.771Z,20.1
2018-08-22T06:57:28.049Z,20.1
2018-08-22T06:57:48.364Z,20.1
2018-08-22T06:58:10.500Z,20.2
2018-08-22T06:58:31.420Z,20.2
2018-08-22T06:58:51.591Z,20.1
2018-08-22T06:59:11.791Z,20.2
2018-08-22T06:59:32.032Z,20.1
2018-08-22T06:59:52.332Z,20.2
2018-08-22T07:00:12.587Z,20.2
2018-08-22T07:00:32.787Z,20.2
2018-08-22T07:00:53.020Z,20.2
2018-08-22T07:01:13.959Z,20.2
2018-08-22T07:01:34.248Z,20.3
2018-08-22T07:01:54.440Z,20.3
2018-08-22T07:02:14.675Z,20.1
2018-08-22T07:02:34.983Z,20.2
2018-08-22T07:02:55.905Z,20.3
2018-08-22T07:03:16.238Z,20.3
2018-08-22T07:03:36.441Z,20.3
2018-08-22T07:03:56.708Z,20.2
2018-08-22T07:04:16.985Z,20.3
2018-08-22T07:04:37.240Z,20.3
2018-08-22T07:04:57.484Z,20.4
2018-08-22T07:05:17.742Z,20.2
2018-08-22T07:05:37.951Z,20.3
2018-08-22T07:05:58.230Z,20.3
2018-08-22T07:06:18.483Z,20.3
2018-08-22T07:06:39.389Z,20.3
2018-08-22T07:06:59.629Z,20.3
2018-08-22T07:07:19.900Z,20.4
2018-08-22T07:07:40.090Z,20.4
2018-08-22T07:08:02.275Z,20.4
2018-08-22T07:08:22.440Z,20.4
2018-08-22T07:08:42.636Z,20.4
2018-08-22T07:09:03.639Z,20.4
2018-08-22T07:09:24.535Z,20.4
2018-08-22T07:09:44.837Z,20.4
2018-08-22T07:10:05.019Z,20.4
2018-08-22T07:10:25.989Z,20.4
2018-08-22T07:10:46.236Z,20.4
2018-08-22T07:11:06.434Z,20.4
2018-08-22T07:11:26.630Z,20.4
2018-08-22T07:11:46.812Z,20.4
2018-08-22T07:12:07.019Z,20.5
2018-08-22T07:12:27.190Z,20.4
2018-08-22T07:12:47.393Z,20.5
2018-08-22T07:13:07.572Z,20.4
2018-08-22T07:13:27.752Z,20.5
2018-08-22T07:13:47.875Z,20.4
2018-08-22T07:14:08.162Z,20.5
2018-08-22T07:14:28.406Z,20.5
2018-08-22T07:14:49.566Z,20.6
2018-08-22T07:15:09.785Z,20.5
2018-08-22T07:15:30.026Z,20.5
2018-08-22T07:15:50.921Z,20.6
2018-08-22T07:16:11.100Z,20.7
2018-08-22T07:16:31.275Z,20.6
2018-08-22T07:16:51.480Z,20.7
2018-08-22T07:17:13.032Z,20.7
2018-08-22T07:17:33.249Z,20.7
2018-08-22T07:17:53.520Z,20.8
2018-08-22T07:18:13.788Z,20.8
2018-08-22T07:18:34.548Z,20.7
2018-08-22T07:18:54.715Z,20.7
2018-08-22T07:19:14.909Z,20.7
2018-08-22T07:19:35.105Z,20.8
2018-08-22T07:19:55.334Z,20.8
2018-08-22T07:20:15.548Z,20.8
2018-08-22T07:20:35.815Z,20.8
2018-08-22T07:20:56.098Z,20.8
2018-08-22T07:21:16.300Z,20.8
2018-08-22T07:21:36.578Z,20.8
2018-08-22T07:21:56.768Z,20.8
2018-08-22T07:22:16.950Z,20.8
2018-08-22T07:22:37.653Z,20.9
2018-08-22T07:22:57.867Z,20.8
2018-08-22T07:23:18.113Z,20.8
2018-08-22T07:23:38.568Z,20.9
2018-08-22T07:23:58.833Z,20.8
2018-08-22T07:24:19.081Z,20.9
2018-08-22T07:24:39.756Z,20.9
2018-08-22T07:24:59.942Z,20.9
2018-08-22T07:25:20.164Z,21
2018-08-22T07:25:40.353Z,21
2018-08-22T07:26:00.522Z,21
2018-08-22T07:26:20.758Z,21
2018-08-22T07:26:40.967Z,21
2018-08-22T07:27:01.167Z,21
2018-08-22T07:27:21.390Z,21.1
2018-08-22T07:27:41.631Z,21
2018-08-22T07:28:01.854Z,21.1
2018-08-22T07:28:22.062Z,21
2018-08-22T07:28:42.253Z,21.1
2018-08-22T07:29:02.460Z,21
2018-08-22T07:29:22.684Z,21.1
2018-08-22T07:29:42.920Z,21.1
2018-08-22T07:30:03.305Z,21.1
2018-08-22T07:30:23.626Z,21.1
2018-08-22T07:30:43.751Z,21.1
2018-08-22T07:31:04.759Z,21.2
2018-08-22T07:31:24.974Z,21.3
2018-08-22T07:31:45.201Z,21.2
2018-08-22T07:32:05.408Z,21.2
2018-08-22T07:32:26.268Z,21.2
2018-08-22T07:32:46.562Z,21.3
2018-08-22T07:33:06.907Z,21.3
2018-08-22T07:33:27.113Z,21.3
2018-08-22T07:33:47.360Z,21.3
2018-08-22T07:34:07.593Z,21.3
2018-08-22T07:34:27.882Z,21.4
2018-08-22T07:34:48.717Z,21.4
2018-08-22T07:35:08.970Z,21.4
2018-08-22T07:35:29.221Z,21.4
2018-08-22T07:35:49.538Z,21.4
2018-08-22T07:36:09.686Z,21.4
2018-08-22T07:36:29.891Z,21.5
2018-08-22T07:36:50.148Z,21.5
2018-08-22T07:37:10.405Z,21.5
2018-08-22T07:37:30.568Z,21.5
2018-08-22T07:37:51.661Z,21.5
2018-08-22T07:38:12.758Z,21.5
2018-08-22T07:38:32.968Z,21.5
2018-08-22T07:38:53.142Z,21.6
2018-08-22T07:39:13.389Z,21.7
2018-08-22T07:39:34.085Z,21.7
2018-08-22T07:39:54.257Z,21.7
2018-08-22T07:40:14.507Z,21.7
2018-08-22T07:40:34.675Z,21.7
2018-08-22T07:40:55.725Z,21.7
2018-08-22T07:41:16.027Z,21.6
2018-08-22T07:41:36.841Z,21.7
2018-08-22T07:41:57.163Z,21.7
2018-08-22T07:42:17.437Z,21.7
2018-08-22T07:42:38.562Z,21.6
2018-08-22T07:42:58.722Z,21.6
2018-08-22T07:43:18.964Z,21.7
2018-08-22T07:43:40.658Z,21.8
2018-08-22T07:44:00.906Z,21.8
2018-08-22T07:44:21.123Z,21.8
2018-08-22T07:44:41.440Z,21.8
2018-08-22T07:45:01.724Z,21.9
2018-08-22T07:45:21.971Z,21.9
2018-08-22T07:45:43.078Z,21.8
2018-08-22T07:46:03.251Z,21.9
2018-08-22T07:46:23.401Z,21.8
2018-08-22T07:46:43.701Z,21.8
2018-08-22T07:47:04.057Z,21.8
2018-08-22T07:47:24.205Z,21.8
2018-08-22T07:47:44.529Z,21.9
2018-08-22T07:48:04.805Z,21.8
2018-08-22T07:48:25.125Z,21.8
2018-08-22T07:48:45.518Z,21.8
2018-08-22T07:49:06.671Z,21.9
2018-08-22T07:49:26.927Z,21.9
2018-08-22T07:49:47.122Z,21.8
2018-08-22T07:50:07.372Z,21.8
2018-08-22T07:50:27.669Z,21.9
2018-08-22T07:50:47.899Z,21.9
2018-08-22T07:51:08.167Z,22
2018-08-22T07:51:28.434Z,22
2018-08-22T07:51:48.806Z,22
2018-08-22T07:52:09.061Z,22
2018-08-22T07:52:29.287Z,22.1
2018-08-22T07:52:49.512Z,22
2018-08-22T07:53:09.806Z,22
2018-08-22T07:53:30.084Z,22.1
2018-08-22T07:53:50.255Z,22.1
2018-08-22T07:54:10.455Z,22.1
2018-08-22T07:54:30.694Z,22
2018-08-22T07:54:50.901Z,22.1
2018-08-22T07:55:12.207Z,22.1
2018-08-22T07:55:32.774Z,22.1
2018-08-22T07:55:52.979Z,22.1
2018-08-22T07:56:13.297Z,22.2
2018-08-22T07:56:33.525Z,22.1
2018-08-22T07:56:53.787Z,22.2
2018-08-22T07:57:14.033Z,22.2
2018-08-22T07:57:34.281Z,22.2
2018-08-22T07:57:54.545Z,22.1
2018-08-22T07:58:15.729Z,22.4
2018-08-22T07:58:35.954Z,22.3
2018-08-22T07:58:56.261Z,22.3
2018-08-22T07:59:16.609Z,22.2
2018-08-22T07:59:36.908Z,22.2
2018-08-22T07:59:57.194Z,22.2
2018-08-22T08:00:17.416Z,22.2
2018-08-22T08:00:37.632Z,22.3
2018-08-22T08:00:57.821Z,22.3
2018-08-22T08:01:18.007Z,22.3
2018-08-22T08:01:39.799Z,22.4
2018-08-22T08:02:00.801Z,22.4
2018-08-22T08:02:20.984Z,22.4
2018-08-22T08:02:41.207Z,22.5
2018-08-22T08:03:01.451Z,22.4
2018-08-22T08:03:22.707Z,22.5
2018-08-22T08:03:43.039Z,22.6
2018-08-22T08:04:04.455Z,22.5
2018-08-22T08:04:24.698Z,22.6
2018-08-22T08:04:44.846Z,22.5
2018-08-22T08:05:05.027Z,22.6
2018-08-22T08:05:25.260Z,22.6
2018-08-22T08:05:45.574Z,22.7
2018-08-22T08:06:05.760Z,22.7
2018-08-22T08:06:25.970Z,22.6
2018-08-22T08:06:46.859Z,22.6
2018-08-22T08:07:07.009Z,22.7
2018-08-22T08:07:27.241Z,22.7
2018-08-22T08:07:47.435Z,22.8
2018-08-22T08:08:07.650Z,22.7
2018-08-22T08:08:27.857Z,22.7
2018-08-22T08:08:48.236Z,22.8
2018-08-22T08:09:08.446Z,22.8
2018-08-22T08:09:29.403Z,22.8
2018-08-22T08:09:49.624Z,22.8
2018-08-22T08:10:09.845Z,22.9
2018-08-22T08:10:30.141Z,22.8
2018-08-22T08:10:50.646Z,22.8
2018-08-22T08:11:10.979Z,22.9
2018-08-22T08:11:31.243Z,22.8
2018-08-22T08:11:51.554Z,22.9
2018-08-22T08:12:11.782Z,22.9
2018-08-22T08:12:32.023Z,22.9
2018-08-22T08:12:52.263Z,22.9
2018-08-22T08:13:12.543Z,22.9
2018-08-22T08:13:33.340Z,23
2018-08-22T08:13:53.702Z,23
2018-08-22T08:14:14.061Z,23.1
2018-08-22T08:14:34.552Z,23.1
2018-08-22T08:14:54.756Z,23
2018-08-22T08:15:15.037Z,23.1
2018-08-22T08:15:35.249Z,23.1
2018-08-22T08:15:55.426Z,23.1
2018-08-22T08:16:15.615Z,23.1
2018-08-22T08:16:35.938Z,23.1
2018-08-22T08:16:56.286Z,23.2
2018-08-22T08:17:16.705Z,23.2
2018-08-22T08:17:36.802Z,23.2
2018-08-22T08:17:57.744Z,23.2
2018-08-22T08:18:17.977Z,23.2
2018-08-22T08:18:38.176Z,23.2
2018-08-22T08:18:58.415Z,23.2
2018-08-22T08:19:18.625Z,23.3
2018-08-22T08:19:38.771Z,23.3
2018-08-22T08:19:58.959Z,23.3
2018-08-22T08:20:19.816Z,23.3
2018-08-22T08:20:40.674Z,23.4
2018-08-22T08:21:00.897Z,23.4
2018-08-22T08:21:21.120Z,23.4
2018-08-22T08:21:41.880Z,23.4
2018-08-22T08:22:02.104Z,23.4
2018-08-22T08:22:22.289Z,23.4
2018-08-22T08:22:42.511Z,23.4
2018-08-22T08:23:02.704Z,23.5
2018-08-22T08:23:23.012Z,23.6
2018-08-22T08:23:43.754Z,23.5
2018-08-22T08:24:04.072Z,23.5
2018-08-22T08:24:24.297Z,23.5
2018-08-22T08:24:44.631Z,23.5
2018-08-22T08:25:05.706Z,23.5
2018-08-22T08:25:25.900Z,23.7
2018-08-22T08:25:47.442Z,23.5
2018-08-22T08:26:07.868Z,23.6
2018-08-22T08:26:29.538Z,23.6
2018-08-22T08:26:49.877Z,23.7
2018-08-22T08:27:10.143Z,23.6
2018-08-22T08:27:30.565Z,23.6
2018-08-22T08:27:50.855Z,23.7
2018-08-22T08:28:11.232Z,23.7
2018-08-22T08:28:31.473Z,23.7
2018-08-22T08:28:51.671Z,23.7
2018-08-22T08:29:11.890Z,23.7
2018-08-22T08:29:32.090Z,23.7
2018-08-22T08:29:52.951Z,23.8
2018-08-22T08:30:13.141Z,23.8
2018-08-22T08:30:33.523Z,23.8
2018-08-22T08:30:53.725Z,23.8
2018-08-22T08:31:14.021Z,23.8
2018-08-22T08:31:34.400Z,23.8
2018-08-22T08:31:54.780Z,23.9
2018-08-22T08:32:14.976Z,24
2018-08-22T08:32:35.363Z,24
2018-08-22T08:32:55.714Z,23.9
2018-08-22T08:33:16.092Z,24.1
2018-08-22T08:33:36.376Z,23.9
2018-08-22T08:33:57.360Z,24
2018-08-22T08:34:17.596Z,24.1
2018-08-22T08:34:37.835Z,24.1
2018-08-22T08:34:58.136Z,23.9
2018-08-22T08:35:18.457Z,24
2018-08-22T08:35:38.701Z,24.1
2018-08-22T08:35:59.083Z,24
2018-08-22T08:36:19.476Z,24.1
2018-08-22T08:36:39.763Z,24.1
2018-08-22T08:37:01.505Z,24.1
2018-08-22T08:37:21.804Z,24.2
2018-08-22T08:37:42.889Z,24.2
2018-08-22T08:38:03.174Z,24.2
2018-08-22T08:38:23.451Z,24.2
2018-08-22T08:38:43.838Z,24.2
2018-08-22T08:39:04.947Z,24.2
2018-08-22T08:39:25.279Z,24.2
2018-08-22T08:39:45.472Z,24.2
2018-08-22T08:40:05.709Z,24.3
2018-08-22T08:40:25.963Z,24.3
2018-08-22T08:40:47.010Z,24.3
2018-08-22T08:41:07.320Z,24.3
2018-08-22T08:41:27.550Z,24.4
2018-08-22T08:41:47.941Z,24.4
2018-08-22T08:42:07.951Z,24.4
2018-08-22T08:42:28.156Z,24.4
2018-08-22T08:42:49.023Z,24.5
2018-08-22T08:43:09.241Z,24.6
2018-08-22T08:43:29.564Z,24.6
2018-08-22T08:43:49.730Z,24.5
2018-08-22T08:44:09.942Z,24.6
2018-08-22T08:44:30.159Z,24.7
2018-08-22T08:44:50.360Z,24.7
2018-08-22T08:45:10.708Z,24.7
2018-08-22T08:45:30.941Z,24.7
2018-08-22T08:45:51.244Z,24.7
2018-08-22T08:46:11.527Z,24.8
2018-08-22T08:46:31.832Z,24.8
2018-08-22T08:46:52.095Z,24.7
2018-08-22T08:47:12.374Z,24.8
2018-08-22T08:47:32.694Z,24.8
2018-08-22T08:47:52.982Z,24.9
2018-08-22T08:48:13.943Z,24.8
2018-08-22T08:48:34.162Z,24.8
2018-08-22T08:48:54.415Z,24.9
2018-08-22T08:49:14.706Z,24.8
2018-08-22T08:49:35.088Z,24.8
2018-08-22T08:49:55.275Z,24.8
2018-08-22T08:50:15.453Z,24.9
2018-08-22T08:50:36.539Z,24.9
2018-08-22T08:50:56.714Z,24.9
2018-08-22T08:51:16.974Z,24.9
2018-08-22T08:51:37.196Z,24.9
2018-08-22T08:51:57.408Z,24.9
2018-08-22T08:52:17.595Z,25
2018-08-22T08:52:37.856Z,24.9
2018-08-22T08:52:58.183Z,24.9
2018-08-22T08:53:18.497Z,24.9
2018-08-22T08:53:38.654Z,25
2018-08-22T08:53:59.080Z,24.9
2018-08-22T08:54:19.306Z,25.1
2018-08-22T08:54:40.165Z,25.1
2018-08-22T08:55:00.324Z,25.1
2018-08-22T08:55:20.532Z,25
2018-08-22T08:55:40.767Z,25.1
2018-08-22T08:56:00.979Z,25.1
2018-08-22T08:56:21.275Z,25.2
2018-08-22T08:56:41.529Z,25.2
2018-08-22T08:57:01.810Z,25.2
2018-08-22T08:57:22.375Z,25.3
2018-08-22T08:57:42.596Z,25.3
2018-08-22T08:58:02.813Z,25.4
2018-08-22T08:58:23.049Z,25.3
2018-08-22T08:58:43.251Z,25.3
2018-08-22T08:59:03.479Z,25.3
2018-08-22T08:59:23.794Z,25.3
2018-08-22T08:59:45.005Z,25.5
2018-08-22T09:00:05.339Z,25.3
2018-08-22T09:00:25.566Z,25.4
2018-08-22T09:00:45.888Z,25.4
2018-08-22T09:01:06.168Z,25.4
2018-08-22T09:01:26.442Z,25.4
2018-08-22T09:01:46.732Z,25.4
2018-08-22T09:02:07.858Z,25.3
2018-08-22T09:02:28.086Z,25.5
2018-08-22T09:02:48.375Z,25.4
2018-08-22T09:03:08.640Z,25.5
2018-08-22T09:03:28.899Z,25.5
2018-08-22T09:03:49.418Z,25.5
2018-08-22T09:04:09.802Z,25.5
2018-08-22T09:04:30.078Z,25.5
2018-08-22T09:04:50.300Z,25.5
2018-08-22T09:05:10.621Z,25.6
2018-08-22T09:05:30.847Z,25.6
2018-08-22T09:05:51.091Z,25.6
2018-08-22T09:06:11.267Z,25.6
2018-08-22T09:06:31.533Z,25.7
2018-08-22T09:06:51.833Z,25.6
2018-08-22T09:07:12.096Z,25.7
2018-08-22T09:07:32.484Z,25.7
2018-08-22T09:07:52.873Z,25.7
2018-08-22T09:08:13.120Z,25.8
2018-08-22T09:08:33.397Z,25.7
2018-08-22T09:08:53.589Z,25.7
2018-08-22T09:09:13.923Z,25.8
2018-08-22T09:09:34.259Z,25.8
2018-08-22T09:09:54.531Z,25.9
2018-08-22T09:10:14.936Z,25.9
2018-08-22T09:10:35.329Z,25.8
2018-08-22T09:10:55.595Z,25.8
2018-08-22T09:11:15.957Z,25.9
2018-08-22T09:11:36.273Z,25.9
2018-08-22T09:11:56.557Z,26
2018-08-22T09:12:17.617Z,25.9
2018-08-22T09:12:37.760Z,26
2018-08-22T09:12:57.963Z,26
2018-08-22T09:13:18.200Z,26
2018-08-22T09:13:38.377Z,26.1
2018-08-22T09:13:58.656Z,25.9
2018-08-22T09:14:18.868Z,26
2018-08-22T09:14:39.224Z,26
2018-08-22T09:15:00.605Z,26
2018-08-22T09:15:20.880Z,26.1
2018-08-22T09:15:41.246Z,26.1
2018-08-22T09:16:01.502Z,26.1
2018-08-22T09:16:21.683Z,26.1
2018-08-22T09:16:41.938Z,26.1
2018-08-22T09:17:02.146Z,26.1
2018-08-22T09:17:22.502Z,26.1
2018-08-22T09:17:42.749Z,26.1
2018-08-22T09:18:03.582Z,26.1
2018-08-22T09:18:23.792Z,26.1
2018-08-22T09:18:44.044Z,26.1
2018-08-22T09:19:04.263Z,26.1
2018-08-22T09:19:24.551Z,26.1
2018-08-22T09:19:44.790Z,26.1
2018-08-22T09:20:04.980Z,26.1
2018-08-22T09:20:25.173Z,26.2
2018-08-22T09:20:45.411Z,26.2
2018-08-22T09:21:05.707Z,26.2
2018-08-22T09:21:27.016Z,26.3
2018-08-22T09:21:47.212Z,26.1
2018-08-22T09:22:07.502Z,26.2
2018-08-22T09:22:27.776Z,26.2
2018-08-22T09:22:48.019Z,26.1
2018-08-22T09:23:08.350Z,26.2
2018-08-22T09:23:28.623Z,26.2
2018-08-22T09:23:48.872Z,26.3
2018-08-22T09:24:09.140Z,26.3
2018-08-22T09:24:29.396Z,26.3
2018-08-22T09:24:49.605Z,26.3
2018-08-22T09:25:09.882Z,26.3
2018-08-22T09:25:30.123Z,26.3
2018-08-22T09:25:50.411Z,26.3
2018-08-22T09:26:10.681Z,26.3
2018-08-22T09:26:30.900Z,26.3
2018-08-22T09:26:51.158Z,26.4
2018-08-22T09:27:11.506Z,26.4
2018-08-22T09:27:31.803Z,26.4
2018-08-22T09:27:52.101Z,26.4
2018-08-22T09:28:13.172Z,26.3
2018-08-22T09:28:33.390Z,26.4
2018-08-22T09:28:53.713Z,26.4
2018-08-22T09:29:13.979Z,26.3
2018-08-22T09:29:34.319Z,26.4
2018-08-22T09:29:54.557Z,26.4
2018-08-22T09:30:14.825Z,26.4
2018-08-22T09:30:35.098Z,26.4
2018-08-22T09:30:55.403Z,26.4
2018-08-22T09:31:15.664Z,26.5
2018-08-22T09:31:35.843Z,26.5
2018-08-22T09:31:56.107Z,26.4
2018-08-22T09:32:16.400Z,26.4
2018-08-22T09:32:39.552Z,26.5
2018-08-22T09:32:59.848Z,26.4
2018-08-22T09:33:20.126Z,26.5
2018-08-22T09:33:40.380Z,26.5
2018-08-22T09:34:00.641Z,26.5
2018-08-22T09:34:20.879Z,26.5
2018-08-22T09:34:41.135Z,26.5
2018-08-22T09:35:01.283Z,26.6
2018-08-22T09:35:21.570Z,26.6
2018-08-22T09:35:41.728Z,26.6
2018-08-22T09:36:01.913Z,26.6
2018-08-22T09:36:22.106Z,26.6
2018-08-22T09:36:42.446Z,26.6
2018-08-22T09:37:02.645Z,26.6
2018-08-22T09:37:22.937Z,26.7
2018-08-22T09:37:43.262Z,26.6
2018-08-22T09:38:03.912Z,26.7
2018-08-22T09:38:25.652Z,26.7
2018-08-22T09:38:45.882Z,26.8
2018-08-22T09:39:06.235Z,26.8
2018-08-22T09:39:26.579Z,26.8
2018-08-22T09:39:46.754Z,26.8
2018-08-22T09:40:07.723Z,26.9
2018-08-22T09:40:27.915Z,26.8
2018-08-22T09:40:48.062Z,26.8
2018-08-22T09:41:08.323Z,26.8
2018-08-22T09:41:29.754Z,26.8
2018-08-22T09:41:49.993Z,26.9
2018-08-22T09:42:10.363Z,26.8
2018-08-22T09:42:30.570Z,26.8
2018-08-22T09:42:51.724Z,26.8
2018-08-22T09:43:12.020Z,26.9
2018-08-22T09:43:32.287Z,26.9
2018-08-22T09:43:52.513Z,26.8
2018-08-22T09:44:12.746Z,26.9
2018-08-22T09:44:32.966Z,26.8
2018-08-22T09:44:53.177Z,26.8
2018-08-22T09:45:13.438Z,26.9
2018-08-22T09:45:33.625Z,26.8
2018-08-22T09:45:53.829Z,26.9
2018-08-22T09:46:14.799Z,26.8
2018-08-22T09:46:35.052Z,26.8
2018-08-22T09:46:55.274Z,26.8
2018-08-22T09:47:15.504Z,26.9
2018-08-22T09:47:35.718Z,26.9
2018-08-22T09:47:56.034Z,27
2018-08-22T09:48:16.271Z,26.9
2018-08-22T09:48:37.176Z,27
2018-08-22T09:48:57.488Z,26.9
2018-08-22T09:49:17.687Z,26.9
2018-08-22T09:49:37.953Z,26.9
2018-08-22T09:49:58.268Z,26.9
2018-08-22T09:50:18.461Z,27
2018-08-22T09:50:39.195Z,26.9
2018-08-22T09:50:59.702Z,27
2018-08-22T09:51:19.969Z,26.9
2018-08-22T09:51:40.239Z,26.9
2018-08-22T09:52:00.556Z,26.8
2018-08-22T09:52:20.814Z,26.8
2018-08-22T09:52:41.517Z,26.9
2018-08-22T09:53:02.322Z,27
2018-08-22T09:53:22.548Z,27
2018-08-22T09:53:42.835Z,26.9
2018-08-22T09:54:02.986Z,27
2018-08-22T09:54:23.174Z,27
2018-08-22T09:54:43.511Z,27
2018-08-22T09:55:03.659Z,27
2018-08-22T09:55:23.915Z,27
2018-08-22T09:55:44.100Z,27
2018-08-22T09:56:04.297Z,27
2018-08-22T09:56:24.546Z,27.1
2018-08-22T09:56:44.824Z,27
2018-08-22T09:57:05.016Z,27
2018-08-22T09:57:25.208Z,27
2018-08-22T09:57:45.470Z,27
2018-08-22T09:58:05.769Z,27.1
2018-08-22T09:58:26.068Z,27.1
2018-08-22T09:58:46.249Z,27
2018-08-22T09:59:06.492Z,27
2018-08-22T09:59:26.818Z,27.1
2018-08-22T09:59:47.083Z,27.1
2018-08-22T10:00:07.327Z,27
2018-08-22T10:00:27.698Z,27
2018-08-22T10:00:48.136Z,27.1
2018-08-22T10:01:08.390Z,27.1
2018-08-22T10:01:29.252Z,27
2018-08-22T10:01:49.513Z,27.1
2018-08-22T10:02:09.734Z,27.1
2018-08-22T10:02:31.727Z,27.1
2018-08-22T10:02:52.020Z,27.2
2018-08-22T10:03:12.232Z,27.2
2018-08-22T10:03:32.392Z,27.2
2018-08-22T10:03:52.564Z,27.2
2018-08-22T10:04:12.853Z,27.1
2018-08-22T10:04:33.688Z,27.2
2018-08-22T10:04:53.913Z,27.2
2018-08-22T10:05:14.636Z,27.2
2018-08-22T10:05:34.919Z,27.2
2018-08-22T10:05:55.114Z,27.3
2018-08-22T10:06:15.432Z,27.2
2018-08-22T10:06:36.488Z,27.2
2018-08-22T10:06:56.974Z,27.2
2018-08-22T10:07:17.223Z,27.2
2018-08-22T10:07:37.570Z,27.3
2018-08-22T10:07:59.221Z,27.2
2018-08-22T10:08:19.493Z,27.2
2018-08-22T10:08:39.783Z,27.3
2018-08-22T10:08:59.933Z,27.2
2018-08-22T10:09:20.101Z,27.2
2018-08-22T10:09:40.325Z,27.3
2018-08-22T10:10:00.621Z,27.3
2018-08-22T10:10:20.873Z,27.3
2018-08-22T10:10:41.095Z,27.3
2018-08-22T10:11:01.344Z,27.3
2018-08-22T10:11:21.522Z,27.4
2018-08-22T10:11:41.676Z,27.3
2018-08-22T10:12:01.826Z,27.3
2018-08-22T10:12:21.998Z,27.3
2018-08-22T10:12:42.163Z,27.3
2018-08-22T10:13:03.007Z,27.4
2018-08-22T10:13:23.201Z,27.3
2018-08-22T10:13:43.417Z,27.4
2018-08-22T10:14:03.632Z,27.3
2018-08-22T10:14:23.901Z,27.3
2018-08-22T10:14:44.152Z,27.3
2018-08-22T10:15:04.345Z,27.4
2018-08-22T10:15:24.607Z,27.3
2018-08-22T10:15:44.821Z,27.4
2018-08-22T10:16:04.949Z,27.3
2018-08-22T10:16:25.127Z,27.4
2018-08-22T10:16:45.270Z,27.4
2018-08-22T10:17:05.496Z,27.4
2018-08-22T10:17:25.845Z,27.4
2018-08-22T10:17:46.123Z,27.4
2018-08-22T10:18:06.321Z,27.5
2018-08-22T10:18:27.435Z,27.4
2018-08-22T10:18:47.645Z,27.5
2018-08-22T10:19:07.912Z,27.4
2018-08-22T10:19:28.240Z,27.4
2018-08-22T10:19:48.441Z,27.4
2018-08-22T10:20:08.686Z,27.4
2018-08-22T10:20:29.136Z,27.4
2018-08-22T10:20:49.474Z,27.4
2018-08-22T10:21:09.770Z,27.4
2018-08-22T10:21:30.144Z,27.4
2018-08-22T10:21:50.307Z,27.5
2018-08-22T10:22:10.620Z,27.5
2018-08-22T10:22:30.809Z,27.4
2018-08-22T10:22:50.987Z,27.5
2018-08-22T10:23:11.221Z,27.5
2018-08-22T10:23:31.612Z,27.5
2018-08-22T10:23:51.847Z,27.5
2018-08-22T10:24:12.164Z,27.5
2018-08-22T10:24:32.394Z,27.6
2018-08-22T10:24:52.850Z,27.6
2018-08-22T10:25:13.954Z,27.4
2018-08-22T10:25:34.280Z,27.5
2018-08-22T10:25:54.516Z,27.5
2018-08-22T10:38:27.426Z,27.6
2018-08-22T10:38:47.694Z,27.8
2018-08-22T10:39:07.904Z,27.7
2018-08-22T10:39:28.298Z,27.7
2018-08-22T10:39:48.512Z,27.7
2018-08-22T10:40:08.755Z,27.8
2018-08-22T10:40:29.272Z,27.7
2018-08-22T10:40:49.533Z,27.6
2018-08-22T10:41:09.775Z,27.7
2018-08-22T10:41:29.965Z,27.7
2018-08-22T10:41:50.316Z,27.7
2018-08-22T10:42:10.532Z,27.8
2018-08-22T10:42:30.809Z,27.7
2018-08-22T10:42:51.059Z,27.8
2018-08-22T10:43:11.212Z,27.7
2018-08-22T10:43:31.482Z,27.7
2018-08-22T10:43:51.751Z,27.8
2018-08-22T10:44:12.001Z,27.8
2018-08-22T10:44:32.309Z,27.8
2018-08-22T10:44:52.639Z,27.8
2018-08-22T10:45:12.945Z,27.8